Data for 03/24/2018

Time Sea-Level Adjusted Pressure Absolute Pressure Temperature Relative Humidity Dew Point   
(mb) (inHg) (mb) (inHg) (C) (F) (%) (C) (F)
00:05 1013 29.91 842 24.86 5.9 42.7 30 -10.2 13.7
00:10 1013 29.91 842 24.86 6 42.7 31 -10 14
00:15 1013 29.91 842 24.86 5.9 42.7 31 -9.9 14.2
00:20 1013 29.91 842 24.86 5.8 42.5 31 -10 14.1
00:25 1013 29.91 842 24.86 5.5 41.9 33 -9.7 14.5
00:30 1013 29.91 842 24.86 5.4 41.7 35 -8.8 16.1
00:35 1013 29.91 842 24.86 5 41 36 -8.7 16.3
00:40 1013 29.91 842 24.86 4.7 40.5 37 -8.9 16
00:45 1013 29.91 842 24.86 4.7 40.5 37 -8.7 16.3
00:50 1013 29.91 842 24.86 4.6 40.2 36 -9.2 15.5
00:55 1013 29.91 842 24.86 4.6 40.2 36 -9.1 15.5
01:00 1013 29.91 842 24.86 4.5 40.1 35 -9.6 14.8
01:05 1013 29.91 842 24.86 4.6 40.3 36 -9.2 15.4
01:10 1013 29.91 842 24.86 4.5 40 36 -9.5 14.9
01:15 1012 29.88 842 24.86 4.4 39.9 37 -8.9 16
01:20 1012 29.88 842 24.86 4 39.1 40 -8.6 16.6
01:25 1012 29.88 842 24.86 3.4 38.2 42 -8.4 16.8
01:30 1012 29.88 842 24.86 3.2 37.8 42 -8.5 16.8
01:35 1012 29.88 841 24.83 3.2 37.7 42 -8.4 16.9
01:40 1012 29.88 841 24.83 3.1 37.6 44 -8 17.6
01:45 1012 29.88 841 24.83 2.9 37.2 43 -8.4 16.9
01:50 1012 29.88 841 24.83 3 37.3 44 -8 17.6
01:55 1012 29.88 841 24.83 3.1 37.5 43 -8.4 16.8
02:00 1012 29.88 841 24.83 3 37.3 45 -7.7 18.1
02:05 1012 29.88 841 24.83 2.8 37 45 -7.9 17.8
02:10 1012 29.88 841 24.83 2.7 36.9 47 -7.6 18.3
02:15 1012 29.88 841 24.83 2.3 36.2 47 -7.9 17.7
02:20 1012 29.88 841 24.83 2.6 36.6 47 -7.8 18
02:25 1012 29.88 841 24.83 2.8 37.1 46 -7.6 18.4
02:30 1012 29.88 841 24.83 3 37.3 46 -7.6 18.3
02:35 1012 29.88 841 24.83 3 37.4 47 -7.3 18.8
02:40 1012 29.88 841 24.83 3 37.4 46 -7.5 18.5
02:45 1012 29.88 841 24.83 3 37.3 46 -7.4 18.7
02:50 1011 29.85 841 24.83 3 37.4 46 -7.5 18.5
02:55 1011 29.85 841 24.83 3.2 37.7 46 -7.3 18.8
03:00 1011 29.85 840 24.81 3.2 37.7 46 -7.3 18.9
03:05 1011 29.85 840 24.81 3.3 37.9 47 -7 19.5
03:10 1011 29.85 840 24.81 3.2 37.8 48 -6.9 19.6
03:15 1011 29.85 840 24.81 3.3 37.9 48 -6.7 19.9
03:20 1011 29.85 840 24.81 3.3 38 47 -6.9 19.5
03:25 1011 29.85 840 24.81 3.5 38.3 48 -6.6 20.1
03:30 1011 29.85 840 24.81 3.4 38.1 49 -6.4 20.5
03:35 1011 29.85 840 24.81 3.4 38.1 48 -6.6 20.1
03:40 1011 29.85 840 24.81 3.7 38.6 47 -6.7 19.9
03:45 1011 29.85 840 24.81 3.7 38.7 47 -6.6 20.1
03:50 1011 29.85 840 24.81 3.8 38.8 47 -6.6 20.2
03:55 1011 29.85 840 24.81 3.8 38.8 47 -6.6 20
04:00 1011 29.85 840 24.81 4.1 39.4 46 -6.5 20.4
04:05 1011 29.85 840 24.81 4.2 39.5 47 -6.2 20.8
04:10 1010 29.83 840 24.81 4.1 39.4 47 -6.2 20.8
04:15 1010 29.83 840 24.81 4 39.2 48 -6 21.1
04:20 1010 29.83 840 24.81 4 39.1 49 -5.9 21.3
04:25 1010 29.83 840 24.81 3.8 38.8 49 -5.9 21.5
04:30 1010 29.83 840 24.81 3.6 38.5 50 -5.9 21.4
04:35 1010 29.83 840 24.81 3.5 38.2 50 -6 21.2
04:40 1010 29.83 840 24.81 3.7 38.7 48 -6.3 20.7
04:45 1010 29.83 840 24.81 4 39.2 48 -6 21.3
04:50 1011 29.85 840 24.81 3.9 39 47 -6.4 20.5
04:55 1011 29.85 840 24.81 4.2 39.6 45 -6.7 19.9
05:00 1011 29.85 840 24.81 4.3 39.7 45 -6.6 20.1
05:05 1011 29.85 840 24.81 4.1 39.3 47 -6.3 20.6
05:10 1011 29.85 840 24.81 3.7 38.7 50 -5.8 21.5
05:15 1010 29.83 840 24.81 3.4 38 56 -4.6 23.7
05:20 1010 29.83 840 24.81 3.5 38.3 61 -3.2 26.2
05:25 1010 29.83 840 24.81 3.2 37.7 59 -4 24.8
05:30 1010 29.83 839 24.78 2.5 36.5 61 -4.2 24.4
05:35 1010 29.83 839 24.78 2.4 36.3 62 -4.1 24.7
05:40 1010 29.83 839 24.78 2.4 36.3 66 -3.4 25.9
05:45 1010 29.83 839 24.78 2.4 36.4 67 -3 26.6
05:50 1010 29.83 839 24.78 2.5 36.4 69 -2.7 27.1
05:55 1010 29.83 839 24.78 2.5 36.5 70 -2.4 27.6
06:00 1010 29.83 839 24.78 2.5 36.5 71 -2.3 27.8
06:05 1010 29.83 839 24.78 2.5 36.5 72 -2.1 28.2
06:10 1010 29.83 839 24.78 2.4 36.4 73 -1.9 28.6
06:15 1010 29.83 839 24.78 2.3 36.1 77 -1.4 29.4
06:20 1010 29.83 839 24.78 2.2 35.9 77 -1.4 29.5
06:25 1010 29.83 839 24.78 2.1 35.8 78 -1.3 29.6
06:30 1010 29.83 839 24.78 2 35.6 79 -1.3 29.6
06:35 1010 29.83 839 24.78 2 35.6 79 -1.2 29.8
06:40 1010 29.83 839 24.78 2 35.6 79 -1.2 29.8
06:45 1010 29.83 839 24.78 2.2 35.9 79 -1.1 30
06:50 1010 29.83 839 24.78 2.2 36 79 -1 30.2
06:55 1010 29.83 839 24.78 2.1 35.8 80 -1 30.3
07:00 1010 29.83 839 24.78 2 35.7 81 -1 30.3
07:05 1010 29.83 839 24.78 1.7 35.1 83 -0.9 30.4
07:10 1010 29.83 839 24.78 1.4 34.4 85 -0.9 30.4
07:15 1010 29.83 839 24.78 1.1 34 87 -0.9 30.4
07:20 1010 29.83 839 24.78 0.8 33.5 88 -0.9 30.3
07:25 1010 29.83 839 24.78 0.6 33.1 89 -1 30.2
07:30 1010 29.83 840 24.81 0.5 32.8 90 -1 30.1
07:35 1010 29.83 840 24.81 0.4 32.7 90 -1 30.2
07:40 1010 29.83 840 24.81 0.3 32.6 91 -1 30.2
07:45 1010 29.83 840 24.81 0.3 32.5 91 -1 30.1
07:50 1010 29.83 840 24.81 0.2 32.4 91 -1 30.1
07:55 1010 29.83 839 24.78 0.1 32.3 91 -1.1 30
08:00 1010 29.83 839 24.78 0 32.1 92 -1.1 30
08:05 1010 29.83 839 24.78 -0 31.9 92 -1.1 29.9
08:10 1010 29.83 839 24.78 -0.1 31.9 93 -1.1 30
08:15 1010 29.83 839 24.78 -0.1 31.8 93 -1.1 30
08:20 1010 29.83 839 24.78 -0.1 31.8 93 -1.1 30
08:25 1010 29.83 839 24.78 -0.1 31.8 93 -1.1 30
08:30 1010 29.83 839 24.78 -0.1 31.8 93 -1.1 30
08:35 1010 29.83 839 24.78 -0.1 31.8 93 -1.1 30.1
08:40 1010 29.83 839 24.78 -0.1 31.8 93 -1 30.1
08:45 1010 29.83 839 24.78 -0.1 31.9 93 -1 30.2
08:50 1009 29.8 839 24.78 -0.1 31.9 93 -1 30.2
08:55 1009 29.8 839 24.78 0 32 94 -0.9 30.4
09:00 1009 29.8 839 24.78 0 32.1 94 -0.9 30.5
09:05 1009 29.8 839 24.78 0.1 32.1 94 -0.8 30.5
09:10 1009 29.8 839 24.78 0.1 32.2 94 -0.8 30.5
09:15 1009 29.8 838 24.75 0.1 32.3 94 -0.8 30.6
09:20 1009 29.8 838 24.75 0.2 32.3 94 -0.7 30.7
09:25 1009 29.8 838 24.75 0.2 32.4 94 -0.7 30.7
09:30 1009 29.8 838 24.75 0.3 32.5 94 -0.7 30.8
09:35 1009 29.8 838 24.75 0.3 32.5 93 -0.7 30.7
09:40 1009 29.8 838 24.75 0.3 32.5 93 -0.7 30.7
09:45 1009 29.8 838 24.75 0.4 32.7 93 -0.6 30.9
09:50 1009 29.8 838 24.75 0.5 32.9 93 -0.5 31.1
09:55 1009 29.8 838 24.75 0.6 33.1 93 -0.4 31.2
10:00 1009 29.8 838 24.75 0.7 33.3 93 -0.3 31.4
10:05 1009 29.8 838 24.75 0.9 33.7 93 -0.1 31.7
10:10 1009 29.8 838 24.75 1.1 34 92 -0.1 31.8
10:15 1009 29.8 838 24.75 1.1 34 91 -0.1 31.8
10:20 1009 29.8 839 24.78 1.3 34.4 91 -0 31.9
10:25 1009 29.8 839 24.78 1.4 34.6 89 -0.1 31.7
10:30 1009 29.8 838 24.75 1.2 34.1 89 -0.4 31.3
10:35 1009 29.8 838 24.75 1.2 34.2 89 -0.3 31.4
10:40 1009 29.8 839 24.78 1.4 34.5 89 -0.3 31.4
10:45 1009 29.8 838 24.75 1.3 34.3 89 -0.3 31.4
10:50 1009 29.8 838 24.75 1.2 34.2 89 -0.3 31.4
10:55 1009 29.8 838 24.75 1.2 34.2 89 -0.4 31.4
11:00 1009 29.8 838 24.75 1.3 34.3 86 -0.9 30.5
11:05 1009 29.8 838 24.75 1.7 35 85 -0.5 31.1
11:10 1009 29.8 838 24.75 1.7 35 87 -0.3 31.4
11:15 1009 29.8 838 24.75 1.6 34.8 87 -0.3 31.4
11:20 1009 29.8 838 24.75 1.4 34.6 89 -0.2 31.6
11:25 1009 29.8 838 24.75 1.4 34.5 90 -0.1 31.8
11:30 1009 29.8 838 24.75 1.5 34.8 89 -0 32
11:35 1009 29.8 838 24.75 1.8 35.2 87 -0.1 31.7
11:40 1009 29.8 838 24.75 2.4 36.2 87 0.4 32.7
11:45 1008 29.77 838 24.75 2.8 37 84 0.3 32.5
11:50 1008 29.77 837 24.72 2.7 36.8 81 -0.3 31.4
11:55 1008 29.77 837 24.72 3.1 37.6 81 0.2 32.3
12:00 1008 29.77 837 24.72 2.9 37.3 82 0.2 32.4
12:05 1008 29.77 837 24.72 2.9 37.2 81 -0.1 31.9
12:10 1008 29.77 837 24.72 2.8 37 82 0 32.1
12:15 1008 29.77 837 24.72 2.4 36.4 84 -0 32
12:20 1008 29.77 837 24.72 2.4 36.3 83 -0.2 31.6
12:25 1008 29.77 837 24.72 2.9 37.2 80 -0.2 31.6
12:30 1008 29.77 837 24.72 3.1 37.5 80 -0 31.9
12:35 1008 29.77 837 24.72 3.2 37.8 79 -0.1 31.9
12:40 1008 29.77 837 24.72 3.7 38.6 78 0.2 32.3
12:45 1007 29.74 837 24.72 4.4 39.9 76 0.5 32.9
12:50 1007 29.74 837 24.72 4.5 40.2 73 0.2 32.3
12:55 1007 29.74 837 24.72 4.4 39.9 74 0.1 32.2
13:00 1008 29.77 837 24.72 4.5 40.1 73 0.1 32.3
13:05 1007 29.74 837 24.72 5 40.9 69 -0.1 31.7
13:10 1007 29.74 837 24.72 5.6 42 68 0.2 32.3
13:15 1007 29.74 837 24.72 5.8 42.5 66 -0.1 31.8
13:20 1008 29.77 837 24.72 6.6 43.9 62 -0.2 31.6
13:25 1008 29.77 837 24.72 7.3 45.1 60 0.1 32.1
13:30 1008 29.77 837 24.72 7.2 44.9 62 0.3 32.5
13:35 1008 29.77 837 24.72 6.8 44.2 63 0.2 32.4
13:40 1008 29.77 837 24.72 6 42.7 69 0.7 33.2
13:45 1008 29.77 837 24.72 4.7 40.5 73 0.3 32.6
13:50 1008 29.77 838 24.75 4.4 39.9 73 -0.1 31.8
13:55 1008 29.77 838 24.75 4.5 40.2 72 -0.2 31.7
14:00 1008 29.77 838 24.75 5 40.9 69 -0.2 31.7
14:05 1008 29.77 838 24.75 5.3 41.5 68 -0.1 31.9
14:10 1008 29.77 838 24.75 5.3 41.5 69 -0 32
14:15 1008 29.77 838 24.75 5 40.9 70 -0.1 31.8
14:20 1009 29.8 838 24.75 4 39.1 75 -0.1 31.9
14:25 1009 29.8 838 24.75 3.5 38.3 78 -0 31.9
14:30 1008 29.77 838 24.75 3.5 38.4 76 -0.3 31.5
14:35 1008 29.77 838 24.75 3.2 37.8 78 -0.2 31.7
14:40 1008 29.77 838 24.75 3.3 37.9 75 -0.7 30.8
14:45 1009 29.8 838 24.75 3.7 38.7 73 -0.7 30.7
14:50 1009 29.8 838 24.75 4 39.2 72 -0.6 30.8
14:55 1009 29.8 838 24.75 3.9 39 71 -0.9 30.4
15:00 1009 29.8 838 24.75 3.8 38.8 71 -1.1 30
15:05 1009 29.8 838 24.75 3.3 38 72 -1.2 29.9
15:10 1009 29.8 838 24.75 3 37.4 74 -1.3 29.7
15:15 1009 29.8 838 24.75 2.9 37.3 73 -1.3 29.6
15:20 1009 29.8 838 24.75 3.1 37.6 71 -1.6 29.2
15:25 1009 29.8 838 24.75 3.1 37.6 71 -1.6 29.1
15:30 1009 29.8 838 24.75 3 37.3 71 -1.8 28.8
15:35 1009 29.8 838 24.75 2.8 37 73 -1.5 29.3
15:40 1009 29.8 839 24.78 2.3 36.1 78 -1.1 29.9
15:45 1009 29.8 838 24.75 2 35.6 82 -0.8 30.6
15:50 1009 29.8 838 24.75 1.7 35.1 83 -0.8 30.5
15:55 1009 29.8 838 24.75 1.6 34.9 81 -1.3 29.7
16:00 1009 29.8 838 24.75 1.6 35 78 -1.8 28.8
16:05 1009 29.8 838 24.75 1.8 35.2 75 -2.1 28.2
16:10 1009 29.8 838 24.75 2 35.7 71 -2.7 27.1
16:15 1009 29.8 838 24.75 2.4 36.3 69 -2.7 27.2
16:20 1009 29.8 838 24.75 2.5 36.5 70 -2.4 27.6
16:25 1009 29.8 838 24.75 2.5 36.4 69 -2.6 27.3
16:30 1009 29.8 838 24.75 2.5 36.5 68 -2.9 26.9
16:35 1009 29.8 838 24.75 2.5 36.4 69 -2.7 27.2
16:40 1009 29.8 838 24.75 2.3 36.1 69 -2.9 26.8
16:45 1009 29.8 839 24.78 2.3 36.1 68 -3 26.5
16:50 1009 29.8 839 24.78 2.1 35.7 73 -2.4 27.8
16:55 1009 29.8 839 24.78 1.7 35 71 -3 26.6
17:00 1009 29.8 839 24.78 1.7 35 69 -3.4 25.8
17:05 1009 29.8 838 24.75 1.7 35.1 69 -3.4 25.9
17:10 1009 29.8 838 24.75 1.9 35.5 68 -3.5 25.8
17:15 1009 29.8 838 24.75 1.7 35.1 66 -4 24.8
17:20 1009 29.8 838 24.75 1.6 34.9 69 -3.5 25.8
17:25 1009 29.8 839 24.78 1.6 34.8 69 -3.5 25.7
17:30 1009 29.8 838 24.75 1.6 34.9 70 -3.3 26
17:35 1009 29.8 838 24.75 1.6 34.9 72 -3 26.6
17:40 1009 29.8 838 24.75 1.7 35 68 -3.7 25.4
17:45 1009 29.8 838 24.75 2.1 35.7 67 -3.3 26
17:50 1009 29.8 838 24.75 2.2 35.9 68 -3.1 26.4
17:55 1009 29.8 838 24.75 2.2 36 65 -3.6 25.6
18:00 1009 29.8 839 24.78 2.5 36.6 63 -3.8 25.2
18:05 1009 29.8 839 24.78 2.4 36.2 65 -3.6 25.5
18:10 1009 29.8 839 24.78 2.2 36 62 -4.2 24.4
18:15 1009 29.8 839 24.78 2.6 36.7 58 -4.7 23.5
18:20 1009 29.8 839 24.78 2.9 37.2 58 -4.7 23.6
18:25 1009 29.8 838 24.75 2.9 37.3 56 -4.9 23.2
18:30 1009 29.8 838 24.75 3.1 37.5 56 -4.9 23.2
18:35 1009 29.8 838 24.75 3 37.5 54 -5.3 22.4
18:40 1009 29.8 838 24.75 3 37.4 53 -5.7 21.8
18:45 1009 29.8 838 24.75 3.1 37.6 52 -5.7 21.7
18:50 1009 29.8 838 24.75 3.2 37.7 49 -6.4 20.5
18:55 1009 29.8 838 24.75 3.2 37.7 48 -6.8 19.7
19:00 1009 29.8 838 24.75 3.2 37.8 46 -7.3 18.8
19:05 1009 29.8 839 24.78 3.3 37.9 46 -7.2 19
19:10 1009 29.8 839 24.78 3.2 37.8 45 -7.5 18.4
19:15 1009 29.8 839 24.78 3 37.5 46 -7.6 18.4
19:20 1009 29.8 839 24.78 3 37.4 44 -8 17.6
19:25 1009 29.8 839 24.78 3 37.4 44 -8.1 17.4
19:30 1009 29.8 839 24.78 3 37.4 43 -8.3 17
19:35 1009 29.8 839 24.78 2.8 37.1 45 -7.9 17.7
19:40 1009 29.8 839 24.78 2.6 36.8 45 -8.3 17.1
19:45 1010 29.83 839 24.78 2.6 36.7 45 -8.1 17.4
19:50 1010 29.83 839 24.78 2.5 36.5 45 -8.3 17.1
19:55 1010 29.83 839 24.78 2.4 36.4 46 -8 17.5
20:00 1010 29.83 839 24.78 2.2 36 48 -7.8 18
20:05 1010 29.83 839 24.78 2 35.6 48 -7.9 17.8
20:10 1010 29.83 839 24.78 1.9 35.5 46 -8.5 16.7
20:15 1010 29.83 839 24.78 2 35.6 47 -8.1 17.5
20:20 1010 29.83 839 24.78 1.8 35.3 47 -8.2 17.2
20:25 1010 29.83 839 24.78 1.8 35.3 47 -8.4 16.8
20:30 1010 29.83 839 24.78 2 35.5 47 -8.3 17.1
20:35 1010 29.83 839 24.78 1.9 35.4 47 -8.2 17.2
20:40 1010 29.83 839 24.78 1.9 35.4 48 -8.1 17.4
20:45 1010 29.83 839 24.78 1.8 35.2 50 -7.5 18.5
20:50 1010 29.83 840 24.81 1.5 34.7 50 -7.8 18
20:55 1010 29.83 840 24.81 1.4 34.5 46 -8.9 15.9
21:00 1010 29.83 840 24.81 2 35.6 45 -8.8 16.2
21:05 1011 29.85 840 24.81 2.1 35.8 45 -8.5 16.7
21:10 1011 29.85 840 24.81 2 35.6 45 -8.7 16.3
21:15 1011 29.85 840 24.81 2 35.6 46 -8.4 16.8
21:20 1011 29.85 840 24.81 1.8 35.2 46 -8.7 16.4
21:25 1011 29.85 840 24.81 1.6 35 46 -8.7 16.4
21:30 1011 29.85 840 24.81 1.5 34.8 48 -8.4 16.9
21:35 1011 29.85 840 24.81 1.3 34.4 48 -8.4 16.8
21:40 1011 29.85 840 24.81 1.3 34.4 48 -8.5 16.7
21:45 1011 29.85 840 24.81 1.4 34.4 50 -8 17.6
21:50 1011 29.85 840 24.81 1.2 34.2 52 -7.6 18.4
21:55 1011 29.85 840 24.81 1 33.8 54 -7.4 18.7
22:00 1011 29.85 841 24.83 0.8 33.4 55 -7.2 19.1
22:05 1011 29.85 841 24.83 0.6 33.1 57 -7 19.4
22:10 1011 29.85 841 24.83 0.6 33 57 -6.9 19.5
22:15 1011 29.85 841 24.83 0.5 32.9 58 -6.9 19.5
22:20 1011 29.85 841 24.83 0.4 32.8 57 -7 19.3
22:25 1011 29.85 841 24.83 0.3 32.6 57 -7.3 18.9
22:30 1011 29.85 841 24.83 0.2 32.3 57 -7.4 18.7
22:35 1011 29.85 841 24.83 0.1 32.1 55 -8 17.6
22:40 1011 29.85 841 24.83 0.1 32.1 54 -8.2 17.2
22:45 1012 29.88 841 24.83 0.1 32.2 54 -8.1 17.4
22:50 1012 29.88 841 24.83 -0.1 31.9 58 -7.5 18.6
22:55 1012 29.88 841 24.83 -0.3 31.5 58 -7.5 18.4
23:00 1012 29.88 841 24.83 -0.3 31.5 60 -7.1 19.1
23:05 1012 29.88 841 24.83 -0.4 31.3 61 -6.9 19.6
23:10 1012 29.88 841 24.83 -0.4 31.2 62 -6.9 19.6
23:15 1012 29.88 841 24.83 -0.4 31.2 61 -7 19.5
23:20 1012 29.88 841 24.83 -0.5 31.1 62 -6.8 19.7
23:25 1012 29.88 841 24.83 -0.6 31 62 -6.9 19.6
23:30 1012 29.88 841 24.83 -0.6 30.9 63 -6.9 19.6
23:35 1012 29.88 841 24.83 -0.7 30.7 63 -7 19.4
23:40 1012 29.88 841 24.83 -0.8 30.6 62 -7.1 19.2
23:45 1012 29.88 841 24.83 -0.8 30.5 63 -7 19.4
23:50 1012 29.88 841 24.83 -0.9 30.5 63 -7 19.3
23:55 1012 29.88 841 24.83 -0.9 30.3 63 -7.1 19.1
24:00 1012 29.88 841 24.83 -1.1 30 65 -6.8 19.8